sensor_id;sensor_type;location;lat;lon;timestamp;P1;durP1;ratioP1;P2;durP2;ratioP2
33006;SDS011;19361;51.598;7.650;2023-05-10T00:02:59;5.80;;;3.20;;
33006;SDS011;19361;51.598;7.650;2023-05-10T00:08:20;3.42;;;3.13;;
33006;SDS011;19361;51.598;7.650;2023-05-10T00:13:41;3.90;;;3.40;;
33006;SDS011;19361;51.598;7.650;2023-05-10T00:19:02;3.55;;;3.25;;
33006;SDS011;19361;51.598;7.650;2023-05-10T00:24:23;3.47;;;3.17;;
33006;SDS011;19361;51.598;7.650;2023-05-10T00:29:45;3.38;;;3.08;;
33006;SDS011;19361;51.598;7.650;2023-05-10T00:35:06;3.53;;;3.30;;
33006;SDS011;19361;51.598;7.650;2023-05-10T00:40:28;3.08;;;2.60;;
33006;SDS011;19361;51.598;7.650;2023-05-10T00:45:50;3.13;;;2.83;;
33006;SDS011;19361;51.598;7.650;2023-05-10T00:51:13;3.53;;;2.40;;
33006;SDS011;19361;51.598;7.650;2023-05-10T00:56:34;2.40;;;2.05;;
33006;SDS011;19361;51.598;7.650;2023-05-10T01:01:55;3.80;;;2.25;;
33006;SDS011;19361;51.598;7.650;2023-05-10T01:07:17;2.90;;;2.25;;
33006;SDS011;19361;51.598;7.650;2023-05-10T01:12:39;3.72;;;2.85;;
33006;SDS011;19361;51.598;7.650;2023-05-10T01:18:01;2.33;;;2.17;;
33006;SDS011;19361;51.598;7.650;2023-05-10T01:23:30;2.92;;;2.72;;
33006;SDS011;19361;51.598;7.650;2023-05-10T01:35:41;3.92;;;3.63;;
33006;SDS011;19361;51.598;7.650;2023-05-10T01:41:33;3.97;;;3.67;;
33006;SDS011;19361;51.598;7.650;2023-05-10T01:47:26;4.45;;;3.95;;
33006;SDS011;19361;51.598;7.650;2023-05-10T01:52:58;4.38;;;4.07;;
33006;SDS011;19361;51.598;7.650;2023-05-10T01:58:26;5.78;;;5.28;;
33006;SDS011;19361;51.598;7.650;2023-05-10T02:03:50;6.07;;;5.57;;
33006;SDS011;19361;51.598;7.650;2023-05-10T02:09:13;5.80;;;5.30;;
33006;SDS011;19361;51.598;7.650;2023-05-10T02:14:36;6.88;;;6.25;;
33006;SDS011;19361;51.598;7.650;2023-05-10T02:19:59;6.43;;;5.85;;
33006;SDS011;19361;51.598;7.650;2023-05-10T02:25:22;7.65;;;6.93;;
33006;SDS011;19361;51.598;7.650;2023-05-10T02:30:45;6.38;;;5.78;;
33006;SDS011;19361;51.598;7.650;2023-05-10T02:36:08;5.90;;;4.93;;
33006;SDS011;19361;51.598;7.650;2023-05-10T02:41:31;5.90;;;3.70;;
33006;SDS011;19361;51.598;7.650;2023-05-10T02:46:53;3.05;;;2.85;;
33006;SDS011;19361;51.598;7.650;2023-05-10T02:52:16;2.80;;;2.58;;
33006;SDS011;19361;51.598;7.650;2023-05-10T02:57:54;2.53;;;2.33;;
33006;SDS011;19361;51.598;7.650;2023-05-10T03:03:21;2.60;;;2.40;;
33006;SDS011;19361;51.598;7.650;2023-05-10T03:08:42;2.00;;;1.90;;
33006;SDS011;19361;51.598;7.650;2023-05-10T03:14:08;3.75;;;1.90;;
33006;SDS011;19361;51.598;7.650;2023-05-10T03:20:04;1.20;;;1.20;;
33006;SDS011;19361;51.598;7.650;2023-05-10T03:25:31;1.77;;;1.67;;
33006;SDS011;19361;51.598;7.650;2023-05-10T03:30:53;1.83;;;1.73;;
33006;SDS011;19361;51.598;7.650;2023-05-10T03:36:16;3.63;;;1.77;;
33006;SDS011;19361;51.598;7.650;2023-05-10T03:41:38;4.05;;;1.73;;
33006;SDS011;19361;51.598;7.650;2023-05-10T03:46:59;4.18;;;2.00;;
33006;SDS011;19361;51.598;7.650;2023-05-10T03:52:20;4.75;;;2.28;;
33006;SDS011;19361;51.598;7.650;2023-05-10T03:57:42;5.63;;;2.17;;
33006;SDS011;19361;51.598;7.650;2023-05-10T04:03:03;3.05;;;1.88;;
33006;SDS011;19361;51.598;7.650;2023-05-10T04:08:24;3.30;;;1.80;;
33006;SDS011;19361;51.598;7.650;2023-05-10T04:13:45;2.20;;;1.88;;
33006;SDS011;19361;51.598;7.650;2023-05-10T04:19:06;4.00;;;2.28;;
33006;SDS011;19361;51.598;7.650;2023-05-10T04:24:27;2.78;;;2.30;;
33006;SDS011;19361;51.598;7.650;2023-05-10T04:29:48;5.68;;;2.85;;
33006;SDS011;19361;51.598;7.650;2023-05-10T04:35:10;3.53;;;2.92;;
33006;SDS011;19361;51.598;7.650;2023-05-10T04:40:31;3.60;;;3.30;;
33006;SDS011;19361;51.598;7.650;2023-05-10T04:50:56;3.78;;;3.47;;
33006;SDS011;19361;51.598;7.650;2023-05-10T04:56:17;5.32;;;4.15;;
33006;SDS011;19361;51.598;7.650;2023-05-10T05:01:39;5.47;;;4.70;;
33006;SDS011;19361;51.598;7.650;2023-05-10T05:07:00;5.95;;;5.45;;
33006;SDS011;19361;51.598;7.650;2023-05-10T05:12:21;8.57;;;6.15;;
33006;SDS011;19361;51.598;7.650;2023-05-10T05:17:42;10.25;;;7.80;;
33006;SDS011;19361;51.598;7.650;2023-05-10T05:23:03;10.73;;;8.13;;
33006;SDS011;19361;51.598;7.650;2023-05-10T05:28:25;11.98;;;10.15;;
33006;SDS011;19361;51.598;7.650;2023-05-10T05:33:46;14.65;;;10.43;;
33006;SDS011;19361;51.598;7.650;2023-05-10T05:39:07;15.95;;;11.05;;
33006;SDS011;19361;51.598;7.650;2023-05-10T05:44:28;17.98;;;13.00;;
33006;SDS011;19361;51.598;7.650;2023-05-10T05:49:49;16.92;;;13.52;;
33006;SDS011;19361;51.598;7.650;2023-05-10T05:55:10;21.60;;;15.82;;
33006;SDS011;19361;51.598;7.650;2023-05-10T06:00:32;23.02;;;17.88;;
33006;SDS011;19361;51.598;7.650;2023-05-10T06:05:53;24.63;;;16.60;;
33006;SDS011;19361;51.598;7.650;2023-05-10T06:11:14;25.02;;;20.17;;
33006;SDS011;19361;51.598;7.650;2023-05-10T06:16:35;27.08;;;20.42;;
33006;SDS011;19361;51.598;7.650;2023-05-10T06:21:56;30.85;;;22.73;;
33006;SDS011;19361;51.598;7.650;2023-05-10T06:27:17;29.90;;;21.90;;
33006;SDS011;19361;51.598;7.650;2023-05-10T06:32:38;29.45;;;20.98;;
33006;SDS011;19361;51.598;7.650;2023-05-10T06:38:00;28.38;;;20.95;;
33006;SDS011;19361;51.598;7.650;2023-05-10T06:43:21;41.38;;;25.42;;
33006;SDS011;19361;51.598;7.650;2023-05-10T06:48:42;41.03;;;28.13;;
33006;SDS011;19361;51.598;7.650;2023-05-10T06:54:03;47.15;;;32.17;;
33006;SDS011;19361;51.598;7.650;2023-05-10T06:59:24;41.45;;;30.00;;
33006;SDS011;19361;51.598;7.650;2023-05-10T07:04:46;45.40;;;30.23;;
33006;SDS011;19361;51.598;7.650;2023-05-10T07:10:08;44.08;;;32.00;;
33006;SDS011;19361;51.598;7.650;2023-05-10T07:15:29;41.80;;;29.73;;
33006;SDS011;19361;51.598;7.650;2023-05-10T07:20:50;41.78;;;29.20;;
33006;SDS011;19361;51.598;7.650;2023-05-10T07:26:12;42.42;;;28.73;;
33006;SDS011;19361;51.598;7.650;2023-05-10T07:31:33;48.22;;;33.30;;
33006;SDS011;19361;51.598;7.650;2023-05-10T07:36:54;40.47;;;30.10;;
33006;SDS011;19361;51.598;7.650;2023-05-10T07:42:15;46.05;;;31.90;;
33006;SDS011;19361;51.598;7.650;2023-05-10T07:47:36;46.47;;;30.80;;
33006;SDS011;19361;51.598;7.650;2023-05-10T07:52:57;39.85;;;29.95;;
33006;SDS011;19361;51.598;7.650;2023-05-10T07:58:18;47.33;;;33.05;;
33006;SDS011;19361;51.598;7.650;2023-05-10T08:03:39;45.90;;;33.90;;
33006;SDS011;19361;51.598;7.650;2023-05-10T08:09:00;44.67;;;34.15;;
33006;SDS011;19361;51.598;7.650;2023-05-10T08:14:22;44.30;;;34.72;;
33006;SDS011;19361;51.598;7.650;2023-05-10T08:19:43;46.05;;;36.17;;
33006;SDS011;19361;51.598;7.650;2023-05-10T08:25:04;48.83;;;36.22;;
33006;SDS011;19361;51.598;7.650;2023-05-10T08:30:26;47.92;;;34.90;;
33006;SDS011;19361;51.598;7.650;2023-05-10T08:35:47;46.78;;;35.80;;
33006;SDS011;19361;51.598;7.650;2023-05-10T08:41:08;50.45;;;36.58;;
33006;SDS011;19361;51.598;7.650;2023-05-10T08:46:31;48.42;;;32.65;;
33006;SDS011;19361;51.598;7.650;2023-05-10T08:51:59;39.30;;;30.23;;
33006;SDS011;19361;51.598;7.650;2023-05-10T08:57:24;33.33;;;25.27;;
33006;SDS011;19361;51.598;7.650;2023-05-10T09:02:46;34.80;;;24.17;;
33006;SDS011;19361;51.598;7.650;2023-05-10T09:08:09;25.88;;;20.42;;
33006;SDS011;19361;51.598;7.650;2023-05-10T09:13:32;28.65;;;19.85;;
33006;SDS011;19361;51.598;7.650;2023-05-10T09:18:53;27.63;;;20.42;;
33006;SDS011;19361;51.598;7.650;2023-05-10T09:24:14;31.50;;;20.25;;
33006;SDS011;19361;51.598;7.650;2023-05-10T09:29:42;34.63;;;22.10;;
33006;SDS011;19361;51.598;7.650;2023-05-10T09:35:10;26.88;;;19.25;;
33006;SDS011;19361;51.598;7.650;2023-05-10T09:40:37;25.70;;;18.95;;
33006;SDS011;19361;51.598;7.650;2023-05-10T09:45:58;25.60;;;19.20;;
33006;SDS011;19361;51.598;7.650;2023-05-10T09:51:23;27.73;;;18.20;;
33006;SDS011;19361;51.598;7.650;2023-05-10T09:56:44;25.48;;;18.30;;
33006;SDS011;19361;51.598;7.650;2023-05-10T10:02:05;21.98;;;15.60;;
33006;SDS011;19361;51.598;7.650;2023-05-10T10:07:27;23.30;;;16.45;;
33006;SDS011;19361;51.598;7.650;2023-05-10T10:12:48;29.08;;;19.92;;
33006;SDS011;19361;51.598;7.650;2023-05-10T10:18:12;18.95;;;13.02;;
33006;SDS011;19361;51.598;7.650;2023-05-10T10:23:35;19.05;;;13.95;;
33006;SDS011;19361;51.598;7.650;2023-05-10T10:35:23;19.40;;;13.18;;
33006;SDS011;19361;51.598;7.650;2023-05-10T10:40:44;18.50;;;12.77;;
33006;SDS011;19361;51.598;7.650;2023-05-10T10:46:09;16.30;;;10.95;;
33006;SDS011;19361;51.598;7.650;2023-05-10T10:51:38;14.23;;;10.05;;
33006;SDS011;19361;51.598;7.650;2023-05-10T10:57:09;17.10;;;10.05;;
33006;SDS011;19361;51.598;7.650;2023-05-10T11:02:42;11.88;;;10.20;;
33006;SDS011;19361;51.598;7.650;2023-05-10T11:08:25;11.77;;;9.75;;
33006;SDS011;19361;51.598;7.650;2023-05-10T11:13:52;14.77;;;10.35;;
33006;SDS011;19361;51.598;7.650;2023-05-10T11:19:13;13.57;;;10.38;;
33006;SDS011;19361;51.598;7.650;2023-05-10T11:24:36;12.60;;;10.13;;
33006;SDS011;19361;51.598;7.650;2023-05-10T11:29:57;16.23;;;9.90;;
33006;SDS011;19361;51.598;7.650;2023-05-10T11:35:18;22.30;;;15.80;;
33006;SDS011;19361;51.598;7.650;2023-05-10T11:40:40;23.95;;;17.48;;
33006;SDS011;19361;51.598;7.650;2023-05-10T11:46:01;25.10;;;18.95;;
33006;SDS011;19361;51.598;7.650;2023-05-10T11:51:23;24.33;;;17.30;;
33006;SDS011;19361;51.598;7.650;2023-05-10T11:56:45;22.75;;;16.27;;
33006;SDS011;19361;51.598;7.650;2023-05-10T12:02:06;21.17;;;16.58;;
33006;SDS011;19361;51.598;7.650;2023-05-10T12:07:27;25.67;;;15.23;;
33006;SDS011;19361;51.598;7.650;2023-05-10T12:12:48;19.17;;;15.02;;
33006;SDS011;19361;51.598;7.650;2023-05-10T12:18:13;17.10;;;13.68;;
33006;SDS011;19361;51.598;7.650;2023-05-10T12:23:34;19.40;;;13.75;;
33006;SDS011;19361;51.598;7.650;2023-05-10T12:29:12;19.55;;;13.90;;
33006;SDS011;19361;51.598;7.650;2023-05-10T12:34:38;20.15;;;14.60;;
33006;SDS011;19361;51.598;7.650;2023-05-10T12:39:59;19.48;;;15.48;;
33006;SDS011;19361;51.598;7.650;2023-05-10T12:45:20;22.98;;;16.30;;
33006;SDS011;19361;51.598;7.650;2023-05-10T12:50:42;23.05;;;18.38;;
33006;SDS011;19361;51.598;7.650;2023-05-10T12:56:03;18.70;;;15.43;;
33006;SDS011;19361;51.598;7.650;2023-05-10T13:01:25;22.50;;;17.52;;
33006;SDS011;19361;51.598;7.650;2023-05-10T13:06:46;22.08;;;16.13;;
33006;SDS011;19361;51.598;7.650;2023-05-10T13:12:07;15.68;;;13.07;;
33006;SDS011;19361;51.598;7.650;2023-05-10T13:17:28;15.13;;;13.07;;
33006;SDS011;19361;51.598;7.650;2023-05-10T13:22:50;17.15;;;13.45;;
33006;SDS011;19361;51.598;7.650;2023-05-10T13:28:11;14.73;;;13.13;;
33006;SDS011;19361;51.598;7.650;2023-05-10T13:33:32;16.30;;;12.65;;
33006;SDS011;19361;51.598;7.650;2023-05-10T13:38:53;13.75;;;11.15;;
33006;SDS011;19361;51.598;7.650;2023-05-10T13:44:14;11.07;;;9.68;;
33006;SDS011;19361;51.598;7.650;2023-05-10T13:49:36;10.98;;;8.70;;
33006;SDS011;19361;51.598;7.650;2023-05-10T13:54:57;10.20;;;8.90;;
33006;SDS011;19361;51.598;7.650;2023-05-10T14:00:18;10.60;;;8.55;;
33006;SDS011;19361;51.598;7.650;2023-05-10T14:05:39;10.82;;;9.18;;
33006;SDS011;19361;51.598;7.650;2023-05-10T14:11:00;10.85;;;9.23;;
33006;SDS011;19361;51.598;7.650;2023-05-10T14:16:21;13.60;;;10.93;;
33006;SDS011;19361;51.598;7.650;2023-05-10T14:21:43;13.68;;;10.85;;
33006;SDS011;19361;51.598;7.650;2023-05-10T14:27:04;15.90;;;12.15;;
33006;SDS011;19361;51.598;7.650;2023-05-10T14:32:26;14.05;;;11.63;;
33006;SDS011;19361;51.598;7.650;2023-05-10T14:37:48;13.52;;;11.73;;
33006;SDS011;19361;51.598;7.650;2023-05-10T14:43:09;12.02;;;10.82;;
33006;SDS011;19361;51.598;7.650;2023-05-10T14:48:30;13.82;;;10.60;;
33006;SDS011;19361;51.598;7.650;2023-05-10T14:53:51;12.27;;;9.35;;
33006;SDS011;19361;51.598;7.650;2023-05-10T14:59:12;8.73;;;7.93;;
33006;SDS011;19361;51.598;7.650;2023-05-10T15:04:33;10.75;;;7.47;;
33006;SDS011;19361;51.598;7.650;2023-05-10T15:09:54;8.75;;;6.72;;
33006;SDS011;19361;51.598;7.650;2023-05-10T15:15:15;11.10;;;8.02;;
33006;SDS011;19361;51.598;7.650;2023-05-10T15:20:36;7.03;;;6.32;;
33006;SDS011;19361;51.598;7.650;2023-05-10T15:25:58;6.80;;;6.20;;
33006;SDS011;19361;51.598;7.650;2023-05-10T15:31:19;7.18;;;6.00;;
33006;SDS011;19361;51.598;7.650;2023-05-10T15:36:40;5.18;;;4.70;;
33006;SDS011;19361;51.598;7.650;2023-05-10T15:42:01;6.20;;;4.22;;
33006;SDS011;19361;51.598;7.650;2023-05-10T15:47:23;6.78;;;4.15;;
33006;SDS011;19361;51.598;7.650;2023-05-10T15:52:45;4.57;;;4.18;;
33006;SDS011;19361;51.598;7.650;2023-05-10T15:58:06;7.30;;;4.18;;
33006;SDS011;19361;51.598;7.650;2023-05-10T16:03:28;5.28;;;3.78;;
33006;SDS011;19361;51.598;7.650;2023-05-10T16:08:50;4.78;;;4.20;;
33006;SDS011;19361;51.598;7.650;2023-05-10T16:14:11;6.10;;;3.97;;
33006;SDS011;19361;51.598;7.650;2023-05-10T16:19:32;6.18;;;3.70;;
33006;SDS011;19361;51.598;7.650;2023-05-10T16:24:53;4.30;;;3.38;;
33006;SDS011;19361;51.598;7.650;2023-05-10T16:30:15;6.88;;;5.05;;
33006;SDS011;19361;51.598;7.650;2023-05-10T16:35:36;6.85;;;5.35;;
33006;SDS011;19361;51.598;7.650;2023-05-10T16:40:57;11.70;;;4.75;;
33006;SDS011;19361;51.598;7.650;2023-05-10T16:46:22;10.43;;;6.03;;
33006;SDS011;19361;51.598;7.650;2023-05-10T16:51:43;8.52;;;7.30;;
33006;SDS011;19361;51.598;7.650;2023-05-10T16:57:05;8.52;;;6.53;;
33006;SDS011;19361;51.598;7.650;2023-05-10T17:02:26;9.50;;;7.90;;
33006;SDS011;19361;51.598;7.650;2023-05-10T17:07:47;11.80;;;7.93;;
33006;SDS011;19361;51.598;7.650;2023-05-10T17:13:08;13.13;;;8.93;;
33006;SDS011;19361;51.598;7.650;2023-05-10T17:18:30;13.65;;;8.07;;
33006;SDS011;19361;51.598;7.650;2023-05-10T17:23:51;9.60;;;7.75;;
33006;SDS011;19361;51.598;7.650;2023-05-10T17:29:12;13.50;;;8.68;;
33006;SDS011;19361;51.598;7.650;2023-05-10T17:34:34;11.02;;;6.80;;
33006;SDS011;19361;51.598;7.650;2023-05-10T17:39:56;15.05;;;8.15;;
33006;SDS011;19361;51.598;7.650;2023-05-10T17:45:17;11.38;;;7.97;;
33006;SDS011;19361;51.598;7.650;2023-05-10T17:50:40;9.52;;;7.93;;
33006;SDS011;19361;51.598;7.650;2023-05-10T17:56:02;13.73;;;8.40;;
33006;SDS011;19361;51.598;7.650;2023-05-10T18:01:23;11.77;;;8.07;;
33006;SDS011;19361;51.598;7.650;2023-05-10T18:06:45;12.10;;;7.90;;
33006;SDS011;19361;51.598;7.650;2023-05-10T18:12:06;12.52;;;7.85;;
33006;SDS011;19361;51.598;7.650;2023-05-10T18:17:27;10.65;;;7.40;;
33006;SDS011;19361;51.598;7.650;2023-05-10T18:22:48;9.30;;;6.68;;
33006;SDS011;19361;51.598;7.650;2023-05-10T18:28:09;10.77;;;7.30;;
33006;SDS011;19361;51.598;7.650;2023-05-10T18:33:30;13.13;;;7.15;;
33006;SDS011;19361;51.598;7.650;2023-05-10T18:38:51;10.60;;;6.35;;
33006;SDS011;19361;51.598;7.650;2023-05-10T18:44:13;14.02;;;6.68;;
33006;SDS011;19361;51.598;7.650;2023-05-10T18:49:34;14.18;;;8.80;;
33006;SDS011;19361;51.598;7.650;2023-05-10T18:54:55;10.35;;;8.43;;
33006;SDS011;19361;51.598;7.650;2023-05-10T19:00:16;10.80;;;8.50;;
33006;SDS011;19361;51.598;7.650;2023-05-10T19:05:39;9.85;;;7.00;;
33006;SDS011;19361;51.598;7.650;2023-05-10T19:11:00;10.13;;;8.30;;
33006;SDS011;19361;51.598;7.650;2023-05-10T19:16:21;10.27;;;7.55;;
33006;SDS011;19361;51.598;7.650;2023-05-10T19:21:42;10.00;;;8.00;;
33006;SDS011;19361;51.598;7.650;2023-05-10T19:27:03;11.70;;;8.88;;
33006;SDS011;19361;51.598;7.650;2023-05-10T19:32:24;12.60;;;9.23;;
33006;SDS011;19361;51.598;7.650;2023-05-10T19:37:45;10.13;;;9.05;;
33006;SDS011;19361;51.598;7.650;2023-05-10T19:43:06;11.80;;;8.75;;
33006;SDS011;19361;51.598;7.650;2023-05-10T19:48:28;12.43;;;9.68;;
33006;SDS011;19361;51.598;7.650;2023-05-10T19:53:49;12.80;;;10.20;;
33006;SDS011;19361;51.598;7.650;2023-05-10T19:59:11;14.02;;;9.77;;
33006;SDS011;19361;51.598;7.650;2023-05-10T20:04:32;10.73;;;9.13;;
33006;SDS011;19361;51.598;7.650;2023-05-10T20:09:54;13.35;;;9.50;;
33006;SDS011;19361;51.598;7.650;2023-05-10T20:15:15;15.02;;;10.05;;
33006;SDS011;19361;51.598;7.650;2023-05-10T20:20:39;11.82;;;9.88;;
33006;SDS011;19361;51.598;7.650;2023-05-10T20:26:00;14.00;;;10.30;;
33006;SDS011;19361;51.598;7.650;2023-05-10T20:31:21;13.15;;;10.60;;
33006;SDS011;19361;51.598;7.650;2023-05-10T20:36:42;13.90;;;10.35;;
33006;SDS011;19361;51.598;7.650;2023-05-10T20:42:03;13.18;;;10.02;;
33006;SDS011;19361;51.598;7.650;2023-05-10T20:47:24;15.38;;;10.70;;
33006;SDS011;19361;51.598;7.650;2023-05-10T20:52:46;12.48;;;10.32;;
33006;SDS011;19361;51.598;7.650;2023-05-10T20:58:10;12.93;;;10.30;;
33006;SDS011;19361;51.598;7.650;2023-05-10T21:03:31;17.02;;;11.77;;
33006;SDS011;19361;51.598;7.650;2023-05-10T21:08:52;20.98;;;17.45;;
33006;SDS011;19361;51.598;7.650;2023-05-10T21:14:13;17.55;;;15.38;;
33006;SDS011;19361;51.598;7.650;2023-05-10T21:19:34;18.75;;;16.05;;
33006;SDS011;19361;51.598;7.650;2023-05-10T21:24:55;26.38;;;19.95;;
33006;SDS011;19361;51.598;7.650;2023-05-10T21:30:17;24.88;;;22.17;;
33006;SDS011;19361;51.598;7.650;2023-05-10T21:35:39;31.35;;;24.08;;
33006;SDS011;19361;51.598;7.650;2023-05-10T21:41:05;29.30;;;24.30;;
33006;SDS011;19361;51.598;7.650;2023-05-10T21:46:27;22.52;;;18.25;;
33006;SDS011;19361;51.598;7.650;2023-05-10T21:51:48;21.15;;;17.70;;
33006;SDS011;19361;51.598;7.650;2023-05-10T21:57:09;26.10;;;21.88;;
33006;SDS011;19361;51.598;7.650;2023-05-10T22:02:30;26.60;;;21.35;;
33006;SDS011;19361;51.598;7.650;2023-05-10T22:07:51;26.73;;;20.17;;
33006;SDS011;19361;51.598;7.650;2023-05-10T22:13:12;24.98;;;19.88;;
33006;SDS011;19361;51.598;7.650;2023-05-10T22:18:33;23.05;;;20.30;;
33006;SDS011;19361;51.598;7.650;2023-05-10T22:23:54;24.90;;;19.02;;
33006;SDS011;19361;51.598;7.650;2023-05-10T22:29:15;23.08;;;17.98;;
33006;SDS011;19361;51.598;7.650;2023-05-10T22:34:36;22.25;;;18.27;;
33006;SDS011;19361;51.598;7.650;2023-05-10T22:39:58;23.45;;;18.75;;
33006;SDS011;19361;51.598;7.650;2023-05-10T22:45:19;20.17;;;17.00;;
33006;SDS011;19361;51.598;7.650;2023-05-10T22:50:40;22.25;;;18.23;;
33006;SDS011;19361;51.598;7.650;2023-05-10T22:56:01;31.58;;;18.23;;
33006;SDS011;19361;51.598;7.650;2023-05-10T23:01:22;25.40;;;19.92;;
33006;SDS011;19361;51.598;7.650;2023-05-10T23:06:43;24.50;;;18.50;;
33006;SDS011;19361;51.598;7.650;2023-05-10T23:12:05;20.52;;;17.83;;
33006;SDS011;19361;51.598;7.650;2023-05-10T23:17:26;20.80;;;17.73;;
33006;SDS011;19361;51.598;7.650;2023-05-10T23:22:47;26.50;;;17.70;;
33006;SDS011;19361;51.598;7.650;2023-05-10T23:28:08;24.08;;;17.52;;
33006;SDS011;19361;51.598;7.650;2023-05-10T23:33:30;23.63;;;18.67;;
33006;SDS011;19361;51.598;7.650;2023-05-10T23:38:51;24.42;;;20.13;;
33006;SDS011;19361;51.598;7.650;2023-05-10T23:44:12;29.63;;;20.52;;
33006;SDS011;19361;51.598;7.650;2023-05-10T23:49:33;26.08;;;19.48;;
33006;SDS011;19361;51.598;7.650;2023-05-10T23:54:54;22.38;;;18.50;;
